sensor_id;sensor_type;location;lat;lon;timestamp;pressure;altitude;pressure_sealevel;temperature;humidity
30554;BME280;17335;50.720;7.452;2022-08-16T00:00:15;98439.53;;;17.85;100.00
30554;BME280;17335;50.720;7.452;2022-08-16T00:02:47;98442.91;;;17.74;100.00
30554;BME280;17335;50.720;7.452;2022-08-16T00:05:14;98440.00;;;17.69;100.00
30554;BME280;17335;50.720;7.452;2022-08-16T00:07:43;98444.81;;;17.67;100.00
30554;BME280;17335;50.720;7.452;2022-08-16T00:10:13;98450.44;;;17.65;100.00
30554;BME280;17335;50.720;7.452;2022-08-16T00:12:47;98449.41;;;17.59;100.00
30554;BME280;17335;50.720;7.452;2022-08-16T00:15:22;98455.25;;;17.63;100.00
30554;BME280;17335;50.720;7.452;2022-08-16T00:18:10;98463.00;;;17.59;100.00
30554;BME280;17335;50.720;7.452;2022-08-16T00:20:39;98461.31;;;17.58;100.00
30554;BME280;17335;50.720;7.452;2022-08-16T00:23:06;98465.69;;;17.66;100.00
30554;BME280;17335;50.720;7.452;2022-08-16T00:25:36;98470.94;;;17.54;100.00
30554;BME280;17335;50.720;7.452;2022-08-16T00:28:22;98483.47;;;17.42;100.00
30554;BME280;17335;50.720;7.452;2022-08-16T00:30:55;98487.00;;;17.36;100.00
30554;BME280;17335;50.720;7.452;2022-08-16T00:33:24;98486.81;;;17.31;100.00
30554;BME280;17335;50.720;7.452;2022-08-16T00:35:51;98483.47;;;17.29;100.00
30554;BME280;17335;50.720;7.452;2022-08-16T00:38:20;98485.56;;;17.27;100.00
30554;BME280;17335;50.720;7.452;2022-08-16T00:41:06;98487.88;;;17.30;100.00
30554;BME280;17335;50.720;7.452;2022-08-16T00:43:35;98485.16;;;17.36;100.00
30554;BME280;17335;50.720;7.452;2022-08-16T00:46:32;98488.50;;;17.38;100.00
30554;BME280;17335;50.720;7.452;2022-08-16T00:49:04;98491.00;;;17.40;100.00
30554;BME280;17335;50.720;7.452;2022-08-16T00:51:43;98488.69;;;17.43;100.00
30554;BME280;17335;50.720;7.452;2022-08-16T00:54:10;98489.09;;;17.47;100.00
30554;BME280;17335;50.720;7.452;2022-08-16T00:56:41;98487.63;;;17.51;100.00
30554;BME280;17335;50.720;7.452;2022-08-16T00:59:26;98480.13;;;17.47;100.00
30554;BME280;17335;50.720;7.452;2022-08-16T01:01:54;98488.28;;;17.47;100.00
30554;BME280;17335;50.720;7.452;2022-08-16T01:04:23;98484.72;;;17.46;100.00
30554;BME280;17335;50.720;7.452;2022-08-16T01:06:58;98474.69;;;17.53;100.00
30554;BME280;17335;50.720;7.452;2022-08-16T01:09:27;98474.88;;;17.58;100.00
30554;BME280;17335;50.720;7.452;2022-08-16T01:12:00;98469.03;;;17.68;100.00
30554;BME280;17335;50.720;7.452;2022-08-16T01:14:38;98470.44;;;17.84;100.00
30554;BME280;17335;50.720;7.452;2022-08-16T01:17:10;98465.88;;;17.91;100.00
30554;BME280;17335;50.720;7.452;2022-08-16T01:19:42;98466.06;;;17.96;100.00
30554;BME280;17335;50.720;7.452;2022-08-16T01:22:24;98458.34;;;17.93;100.00
30554;BME280;17335;50.720;7.452;2022-08-16T01:25:19;98466.69;;;17.98;100.00
30554;BME280;17335;50.720;7.452;2022-08-16T01:27:53;98463.34;;;17.96;100.00
30554;BME280;17335;50.720;7.452;2022-08-16T01:30:36;98462.69;;;18.01;100.00
30554;BME280;17335;50.720;7.452;2022-08-16T01:33:17;98460.78;;;18.02;100.00
30554;BME280;17335;50.720;7.452;2022-08-16T01:35:56;98463.50;;;18.02;100.00
30554;BME280;17335;50.720;7.452;2022-08-16T01:38:37;98465.44;;;17.94;100.00
30554;BME280;17335;50.720;7.452;2022-08-16T01:41:21;98471.31;;;17.91;100.00
30554;BME280;17335;50.720;7.452;2022-08-16T01:43:50;98466.91;;;17.84;100.00
30554;BME280;17335;50.720;7.452;2022-08-16T01:46:34;98470.88;;;17.81;100.00
30554;BME280;17335;50.720;7.452;2022-08-16T01:49:11;98465.91;;;17.65;100.00
30554;BME280;17335;50.720;7.452;2022-08-16T01:51:41;98474.69;;;17.53;100.00
30554;BME280;17335;50.720;7.452;2022-08-16T01:54:10;98479.28;;;17.46;100.00
30554;BME280;17335;50.720;7.452;2022-08-16T01:56:39;98477.44;;;17.47;100.00
30554;BME280;17335;50.720;7.452;2022-08-16T01:59:09;98477.63;;;17.38;100.00
30554;BME280;17335;50.720;7.452;2022-08-16T02:01:43;98467.19;;;17.35;100.00
30554;BME280;17335;50.720;7.452;2022-08-16T02:04:17;98473.25;;;17.31;100.00
30554;BME280;17335;50.720;7.452;2022-08-16T02:07:04;98473.03;;;17.32;100.00
30554;BME280;17335;50.720;7.452;2022-08-16T02:09:37;98468.88;;;17.36;100.00
30554;BME280;17335;50.720;7.452;2022-08-16T02:12:07;98476.56;;;17.39;100.00
30554;BME280;17335;50.720;7.452;2022-08-16T02:14:54;98476.38;;;17.34;100.00
30554;BME280;17335;50.720;7.452;2022-08-16T02:17:23;98469.28;;;17.33;100.00
30554;BME280;17335;50.720;7.452;2022-08-16T02:19:54;98473.88;;;17.33;100.00
30554;BME280;17335;50.720;7.452;2022-08-16T02:22:26;98469.28;;;17.27;100.00
30554;BME280;17335;50.720;7.452;2022-08-16T02:25:14;98472.63;;;17.22;100.00
30554;BME280;17335;50.720;7.452;2022-08-16T02:27:43;98472.22;;;17.32;100.00
30554;BME280;17335;50.720;7.452;2022-08-16T02:30:20;98475.97;;;17.37;100.00
30554;BME280;17335;50.720;7.452;2022-08-16T02:33:07;98473.44;;;17.29;100.00
30554;BME280;17335;50.720;7.452;2022-08-16T02:35:35;98474.31;;;17.23;100.00
30554;BME280;17335;50.720;7.452;2022-08-16T02:38:22;98475.97;;;17.17;100.00
30554;BME280;17335;50.720;7.452;2022-08-16T02:40:49;98478.47;;;17.12;100.00
30554;BME280;17335;50.720;7.452;2022-08-16T02:43:23;98480.75;;;17.09;100.00
30554;BME280;17335;50.720;7.452;2022-08-16T02:45:53;98484.31;;;17.02;100.00
30554;BME280;17335;50.720;7.452;2022-08-16T02:48:22;98477.41;;;17.00;100.00
30554;BME280;17335;50.720;7.452;2022-08-16T02:51:01;98480.56;;;16.97;100.00
30554;BME280;17335;50.720;7.452;2022-08-16T02:53:40;98478.88;;;16.96;100.00
30554;BME280;17335;50.720;7.452;2022-08-16T02:56:09;98479.28;;;16.93;100.00
30554;BME280;17335;50.720;7.452;2022-08-16T02:58:40;98475.34;;;16.95;100.00
30554;BME280;17335;50.720;7.452;2022-08-16T03:01:10;98472.84;;;16.94;100.00
30554;BME280;17335;50.720;7.452;2022-08-16T03:03:52;98467.81;;;16.91;100.00
30554;BME280;17335;50.720;7.452;2022-08-16T03:06:39;98474.69;;;16.93;100.00
30554;BME280;17335;50.720;7.452;2022-08-16T03:09:08;98478.84;;;16.82;100.00
30554;BME280;17335;50.720;7.452;2022-08-16T03:11:40;98487.22;;;16.87;100.00
30554;BME280;17335;50.720;7.452;2022-08-16T03:14:07;98482.81;;;16.80;100.00
30554;BME280;17335;50.720;7.452;2022-08-16T03:16:37;98481.78;;;16.87;100.00
30554;BME280;17335;50.720;7.452;2022-08-16T03:19:24;98479.72;;;16.96;100.00
30554;BME280;17335;50.720;7.452;2022-08-16T03:22:11;98478.69;;;17.04;100.00
30554;BME280;17335;50.720;7.452;2022-08-16T03:24:53;98480.78;;;17.02;100.00
30554;BME280;17335;50.720;7.452;2022-08-16T03:27:23;98479.31;;;16.99;100.00
30554;BME280;17335;50.720;7.452;2022-08-16T03:29:50;98480.56;;;16.97;100.00
30554;BME280;17335;50.720;7.452;2022-08-16T03:32:20;98479.72;;;17.03;100.00
30554;BME280;17335;50.720;7.452;2022-08-16T03:34:46;98483.28;;;16.97;100.00
30554;BME280;17335;50.720;7.452;2022-08-16T03:37:15;98489.31;;;16.99;100.00
30554;BME280;17335;50.720;7.452;2022-08-16T03:39:42;98490.56;;;17.03;100.00
30554;BME280;17335;50.720;7.452;2022-08-16T03:42:09;98486.41;;;17.07;100.00
30554;BME280;17335;50.720;7.452;2022-08-16T03:44:36;98494.94;;;16.97;100.00
30554;BME280;17335;50.720;7.452;2022-08-16T03:47:12;98489.09;;;16.94;100.00
30554;BME280;17335;50.720;7.452;2022-08-16T03:49:47;98487.22;;;16.94;100.00
30554;BME280;17335;50.720;7.452;2022-08-16T03:52:18;98493.91;;;16.85;100.00
30554;BME280;17335;50.720;7.452;2022-08-16T03:54:46;98491.13;;;16.78;100.00
30554;BME280;17335;50.720;7.452;2022-08-16T03:57:23;98498.84;;;16.75;100.00
30554;BME280;17335;50.720;7.452;2022-08-16T03:59:57;98501.34;;;16.76;100.00
30554;BME280;17335;50.720;7.452;2022-08-16T04:02:25;98494.84;;;16.71;100.00
30554;BME280;17335;50.720;7.452;2022-08-16T04:05:07;98499.84;;;16.67;100.00
30554;BME280;17335;50.720;7.452;2022-08-16T04:07:34;98495.06;;;16.62;100.00
30554;BME280;17335;50.720;7.452;2022-08-16T04:10:04;98496.75;;;16.70;100.00
30554;BME280;17335;50.720;7.452;2022-08-16T04:12:51;98503.84;;;16.71;100.00
30554;BME280;17335;50.720;7.452;2022-08-16T04:15:30;98509.50;;;16.76;100.00
30554;BME280;17335;50.720;7.452;2022-08-16T04:17:59;98512.19;;;16.76;100.00
30554;BME280;17335;50.720;7.452;2022-08-16T04:20:31;98505.91;;;16.69;100.00
30554;BME280;17335;50.720;7.452;2022-08-16T04:23:02;98509.47;;;16.69;100.00
30554;BME280;17335;50.720;7.452;2022-08-16T04:25:31;98511.53;;;16.74;100.00
30554;BME280;17335;50.720;7.452;2022-08-16T04:27:58;98511.75;;;16.73;100.00
30554;BME280;17335;50.720;7.452;2022-08-16T04:30:45;98520.09;;;16.78;100.00
30554;BME280;17335;50.720;7.452;2022-08-16T04:33:13;98519.25;;;16.77;100.00
30554;BME280;17335;50.720;7.452;2022-08-16T04:35:40;98519.66;;;16.74;100.00
30554;BME280;17335;50.720;7.452;2022-08-16T04:38:07;98515.72;;;16.77;100.00
30554;BME280;17335;50.720;7.452;2022-08-16T04:40:47;98520.31;;;16.76;100.00
30554;BME280;17335;50.720;7.452;2022-08-16T04:43:16;98522.38;;;16.74;100.00
30554;BME280;17335;50.720;7.452;2022-08-16T04:45:44;98530.09;;;16.71;100.00
30554;BME280;17335;50.720;7.452;2022-08-16T04:48:11;98531.75;;;16.65;100.00
30554;BME280;17335;50.720;7.452;2022-08-16T04:50:58;98535.47;;;16.64;100.00
30554;BME280;17335;50.720;7.452;2022-08-16T04:53:25;98544.88;;;16.61;100.00
30554;BME280;17335;50.720;7.452;2022-08-16T04:55:54;98537.59;;;16.68;100.00
30554;BME280;17335;50.720;7.452;2022-08-16T04:58:21;98540.94;;;16.71;100.00
30554;BME280;17335;50.720;7.452;2022-08-16T05:01:08;98548.84;;;16.72;100.00
30554;BME280;17335;50.720;7.452;2022-08-16T05:03:34;98546.34;;;16.71;100.00
30554;BME280;17335;50.720;7.452;2022-08-16T05:06:07;98558.88;;;16.72;100.00
30554;BME280;17335;50.720;7.452;2022-08-16T05:08:35;98546.38;;;16.77;100.00
30554;BME280;17335;50.720;7.452;2022-08-16T05:11:06;98542.63;;;16.78;100.00
30554;BME280;17335;50.720;7.452;2022-08-16T05:13:36;98546.44;;;16.91;100.00
30554;BME280;17335;50.720;7.452;2022-08-16T05:16:18;98548.19;;;17.52;100.00
30554;BME280;17335;50.720;7.452;2022-08-16T05:18:50;98537.78;;;18.86;100.00
30554;BME280;17335;50.720;7.452;2022-08-16T05:21:18;98507.06;;;21.02;100.00
30554;BME280;17335;50.720;7.452;2022-08-16T05:23:49;98485.25;;;22.90;100.00
30554;BME280;17335;50.720;7.452;2022-08-16T05:26:25;98488.13;;;23.96;100.00
30554;BME280;17335;50.720;7.452;2022-08-16T05:28:56;98472.44;;;24.58;100.00
30554;BME280;17335;50.720;7.452;2022-08-16T05:31:25;98479.19;;;25.32;100.00
30554;BME280;17335;50.720;7.452;2022-08-16T05:33:55;98480.50;;;25.94;100.00
30554;BME280;17335;50.720;7.452;2022-08-16T05:36:22;98471.56;;;26.30;100.00
30554;BME280;17335;50.720;7.452;2022-08-16T05:39:00;98474.69;;;26.54;100.00
30554;BME280;17335;50.720;7.452;2022-08-16T05:41:27;98480.28;;;25.63;100.00
30554;BME280;17335;50.720;7.452;2022-08-16T05:43:56;98476.91;;;24.64;100.00
30554;BME280;17335;50.720;7.452;2022-08-16T05:46:30;98487.50;;;23.21;100.00
30554;BME280;17335;50.720;7.452;2022-08-16T05:48:58;98497.88;;;22.21;100.00
30554;BME280;17335;50.720;7.452;2022-08-16T05:51:34;98504.41;;;21.38;100.00
30554;BME280;17335;50.720;7.452;2022-08-16T05:54:09;98494.81;;;20.81;100.00
30554;BME280;17335;50.720;7.452;2022-08-16T05:56:40;98509.13;;;20.28;100.00
30554;BME280;17335;50.720;7.452;2022-08-16T05:59:08;98506.84;;;19.88;100.00
30554;BME280;17335;50.720;7.452;2022-08-16T06:01:36;98518.41;;;19.58;100.00
30554;BME280;17335;50.720;7.452;2022-08-16T06:04:06;98526.03;;;19.49;100.00
30554;BME280;17335;50.720;7.452;2022-08-16T06:06:52;98518.59;;;19.38;100.00
30554;BME280;17335;50.720;7.452;2022-08-16T06:09:24;98518.66;;;19.31;100.00
30554;BME280;17335;50.720;7.452;2022-08-16T06:12:12;98527.25;;;19.28;100.00
30554;BME280;17335;50.720;7.452;2022-08-16T06:15:00;98532.94;;;19.20;100.00
30554;BME280;17335;50.720;7.452;2022-08-16T06:17:30;98531.75;;;19.16;100.00
30554;BME280;17335;50.720;7.452;2022-08-16T06:20:12;98539.47;;;19.19;100.00
30554;BME280;17335;50.720;7.452;2022-08-16T06:22:39;98535.25;;;19.23;100.00
30554;BME280;17335;50.720;7.452;2022-08-16T06:25:11;98532.13;;;19.19;100.00
30554;BME280;17335;50.720;7.452;2022-08-16T06:27:41;98538.34;;;19.26;100.00
30554;BME280;17335;50.720;7.452;2022-08-16T06:30:23;98541.88;;;19.27;100.00
30554;BME280;17335;50.720;7.452;2022-08-16T06:32:54;98539.34;;;19.32;100.00
30554;BME280;17335;50.720;7.452;2022-08-16T06:35:21;98542.88;;;19.39;100.00
30554;BME280;17335;50.720;7.452;2022-08-16T06:37:49;98548.69;;;19.43;100.00
30554;BME280;17335;50.720;7.452;2022-08-16T06:40:18;98535.97;;;19.62;100.00
30554;BME280;17335;50.720;7.452;2022-08-16T06:42:45;98538.16;;;19.72;100.00
30554;BME280;17335;50.720;7.452;2022-08-16T06:45:14;98543.31;;;19.86;100.00
30554;BME280;17335;50.720;7.452;2022-08-16T06:47:40;98544.91;;;19.94;100.00
30554;BME280;17335;50.720;7.452;2022-08-16T06:50:22;98533.63;;;20.09;100.00
30554;BME280;17335;50.720;7.452;2022-08-16T06:52:55;98530.00;;;20.15;100.00
30554;BME280;17335;50.720;7.452;2022-08-16T06:55:34;98535.41;;;20.22;100.00
30554;BME280;17335;50.720;7.452;2022-08-16T06:58:03;98536.44;;;20.39;100.00
30554;BME280;17335;50.720;7.452;2022-08-16T07:00:34;98531.66;;;20.53;100.00
30554;BME280;17335;50.720;7.452;2022-08-16T07:03:06;98537.25;;;20.58;100.00
30554;BME280;17335;50.720;7.452;2022-08-16T07:05:56;98536.97;;;20.67;100.00
30554;BME280;17335;50.720;7.452;2022-08-16T07:08:24;98544.94;;;20.68;100.00
30554;BME280;17335;50.720;7.452;2022-08-16T07:10:53;98542.34;;;20.73;100.00
30554;BME280;17335;50.720;7.452;2022-08-16T07:13:20;98544.34;;;20.78;100.00
30554;BME280;17335;50.720;7.452;2022-08-16T07:16:08;98546.63;;;20.81;100.00
30554;BME280;17335;50.720;7.452;2022-08-16T07:18:44;98548.91;;;20.84;100.00
30554;BME280;17335;50.720;7.452;2022-08-16T07:21:27;98557.97;;;20.96;100.00
30554;BME280;17335;50.720;7.452;2022-08-16T07:24:14;98547.91;;;21.09;100.00
30554;BME280;17335;50.720;7.452;2022-08-16T07:26:59;98543.22;;;21.28;100.00
30554;BME280;17335;50.720;7.452;2022-08-16T07:29:27;98548.09;;;21.38;100.00
30554;BME280;17335;50.720;7.452;2022-08-16T07:31:58;98555.25;;;21.39;100.00
30554;BME280;17335;50.720;7.452;2022-08-16T07:34:27;98551.78;;;21.43;100.00
30554;BME280;17335;50.720;7.452;2022-08-16T07:37:06;98547.94;;;21.63;100.00
30554;BME280;17335;50.720;7.452;2022-08-16T07:39:33;98554.00;;;21.65;100.00
30554;BME280;17335;50.720;7.452;2022-08-16T07:42:10;98563.84;;;21.78;100.00
30554;BME280;17335;50.720;7.452;2022-08-16T07:44:51;98566.22;;;21.86;100.00
30554;BME280;17335;50.720;7.452;2022-08-16T07:47:19;98568.03;;;21.92;100.00
30554;BME280;17335;50.720;7.452;2022-08-16T07:49:56;98566.22;;;21.86;100.00
30554;BME280;17335;50.720;7.452;2022-08-16T07:52:24;98563.63;;;21.91;100.00
30554;BME280;17335;50.720;7.452;2022-08-16T07:54:56;98563.16;;;22.06;100.00
30554;BME280;17335;50.720;7.452;2022-08-16T07:57:23;98559.56;;;22.17;100.00
30554;BME280;17335;50.720;7.452;2022-08-16T07:59:50;98562.16;;;22.24;100.00
30554;BME280;17335;50.720;7.452;2022-08-16T08:02:18;98568.13;;;22.33;100.00
30554;BME280;17335;50.720;7.452;2022-08-16T08:04:47;98559.78;;;22.39;100.00
30554;BME280;17335;50.720;7.452;2022-08-16T08:07:14;98559.06;;;22.56;100.00
30554;BME280;17335;50.720;7.452;2022-08-16T08:09:42;98560.22;;;22.60;100.00
30554;BME280;17335;50.720;7.452;2022-08-16T08:12:10;98561.75;;;22.68;100.00
30554;BME280;17335;50.720;7.452;2022-08-16T08:14:56;98560.44;;;22.70;100.00
30554;BME280;17335;50.720;7.452;2022-08-16T08:17:23;98557.22;;;22.73;100.00
30554;BME280;17335;50.720;7.452;2022-08-16T08:20:09;98561.16;;;22.94;100.00
30554;BME280;17335;50.720;7.452;2022-08-16T08:22:37;98567.91;;;23.03;100.00
30554;BME280;17335;50.720;7.452;2022-08-16T08:25:06;98552.44;;;23.09;100.00
30554;BME280;17335;50.720;7.452;2022-08-16T08:27:35;98564.88;;;23.17;100.00
30554;BME280;17335;50.720;7.452;2022-08-16T08:30:03;98559.50;;;23.22;100.00
30554;BME280;17335;50.720;7.452;2022-08-16T08:32:50;98562.75;;;23.36;100.00
30554;BME280;17335;50.720;7.452;2022-08-16T08:35:28;98561.63;;;23.49;100.00
30554;BME280;17335;50.720;7.452;2022-08-16T08:37:55;98560.44;;;23.45;100.00
30554;BME280;17335;50.720;7.452;2022-08-16T08:40:23;98566.94;;;23.55;100.00
30554;BME280;17335;50.720;7.452;2022-08-16T08:42:58;98570.84;;;23.59;100.00
30554;BME280;17335;50.720;7.452;2022-08-16T08:45:43;98558.13;;;23.70;100.00
30554;BME280;17335;50.720;7.452;2022-08-16T08:48:15;98566.44;;;23.75;100.00
30554;BME280;17335;50.720;7.452;2022-08-16T08:51:05;98563.94;;;23.74;100.00
30554;BME280;17335;50.720;7.452;2022-08-16T08:53:35;98562.78;;;23.70;100.00
30554;BME280;17335;50.720;7.452;2022-08-16T08:56:03;98562.94;;;23.80;100.00
30554;BME280;17335;50.720;7.452;2022-08-16T08:58:49;98563.13;;;23.90;100.00
30554;BME280;17335;50.720;7.452;2022-08-16T09:01:30;98556.72;;;24.02;100.00
30554;BME280;17335;50.720;7.452;2022-08-16T09:04:08;98552.47;;;24.11;100.00
30554;BME280;17335;50.720;7.452;2022-08-16T09:06:40;98561.34;;;24.18;100.00
30554;BME280;17335;50.720;7.452;2022-08-16T09:09:10;98571.97;;;24.14;100.00
30554;BME280;17335;50.720;7.452;2022-08-16T09:11:43;98572.88;;;24.20;100.00
30554;BME280;17335;50.720;7.452;2022-08-16T09:14:18;98572.00;;;24.37;100.00
30554;BME280;17335;50.720;7.452;2022-08-16T09:16:50;98578.13;;;24.44;100.00
30554;BME280;17335;50.720;7.452;2022-08-16T09:19:33;98570.97;;;24.60;100.00
30554;BME280;17335;50.720;7.452;2022-08-16T09:22:08;98572.44;;;24.67;100.00
30554;BME280;17335;50.720;7.452;2022-08-16T09:24:47;98569.75;;;24.73;100.00
30554;BME280;17335;50.720;7.452;2022-08-16T09:27:21;98570.44;;;24.85;100.00
30554;BME280;17335;50.720;7.452;2022-08-16T09:29:51;98571.97;;;25.25;100.00
30554;BME280;17335;50.720;7.452;2022-08-16T09:32:29;98572.75;;;25.48;100.00
30554;BME280;17335;50.720;7.452;2022-08-16T09:34:58;98570.63;;;25.55;100.00
30554;BME280;17335;50.720;7.452;2022-08-16T09:37:26;98569.56;;;25.61;100.00
30554;BME280;17335;50.720;7.452;2022-08-16T09:39:57;98578.53;;;25.83;100.00
30554;BME280;17335;50.720;7.452;2022-08-16T09:42:27;98579.59;;;25.77;100.00
30554;BME280;17335;50.720;7.452;2022-08-16T09:44:54;98574.81;;;25.95;100.00
30554;BME280;17335;50.720;7.452;2022-08-16T09:47:41;98572.44;;;26.14;100.00
30554;BME280;17335;50.720;7.452;2022-08-16T09:50:26;98575.81;;;26.26;100.00
30554;BME280;17335;50.720;7.452;2022-08-16T09:53:11;98580.59;;;26.41;100.00
30554;BME280;17335;50.720;7.452;2022-08-16T09:55:44;98584.09;;;26.31;100.00
30554;BME280;17335;50.720;7.452;2022-08-16T09:58:17;98572.03;;;26.37;100.00
30554;BME280;17335;50.720;7.452;2022-08-16T10:01:04;98581.78;;;26.61;100.00
30554;BME280;17335;50.720;7.452;2022-08-16T10:03:30;98567.25;;;26.70;99.68
30554;BME280;17335;50.720;7.452;2022-08-16T10:05:57;98574.38;;;26.66;99.64
30554;BME280;17335;50.720;7.452;2022-08-16T10:08:24;98569.81;;;26.87;99.05
30554;BME280;17335;50.720;7.452;2022-08-16T10:10:53;98576.09;;;26.78;96.47
30554;BME280;17335;50.720;7.452;2022-08-16T10:13:38;98567.06;;;26.92;98.09
30554;BME280;17335;50.720;7.452;2022-08-16T10:16:07;98558.22;;;26.95;97.12
30554;BME280;17335;50.720;7.452;2022-08-16T10:18:35;98559.38;;;27.00;100.00
30554;BME280;17335;50.720;7.452;2022-08-16T10:21:22;98558.28;;;27.21;100.00
30554;BME280;17335;50.720;7.452;2022-08-16T10:23:49;98559.19;;;27.42;94.92
30554;BME280;17335;50.720;7.452;2022-08-16T10:26:21;98557.81;;;27.55;91.41
30554;BME280;17335;50.720;7.452;2022-08-16T10:29:10;98566.06;;;27.60;87.45
30554;BME280;17335;50.720;7.452;2022-08-16T10:31:36;98566.63;;;27.78;87.34
30554;BME280;17335;50.720;7.452;2022-08-16T10:34:12;98557.81;;;27.71;82.62
30554;BME280;17335;50.720;7.452;2022-08-16T10:36:59;98571.59;;;28.01;82.80
30554;BME280;17335;50.720;7.452;2022-08-16T10:39:27;98564.31;;;28.36;76.65
30554;BME280;17335;50.720;7.452;2022-08-16T10:42:08;98561.28;;;28.43;69.72
30554;BME280;17335;50.720;7.452;2022-08-16T10:44:39;98568.16;;;28.61;76.68
30554;BME280;17335;50.720;7.452;2022-08-16T10:47:07;98560.94;;;28.70;76.69
30554;BME280;17335;50.720;7.452;2022-08-16T10:49:37;98561.75;;;28.71;75.22
30554;BME280;17335;50.720;7.452;2022-08-16T10:52:04;98562.66;;;28.56;74.36
30554;BME280;17335;50.720;7.452;2022-08-16T10:54:44;98565.41;;;28.56;75.04
30554;BME280;17335;50.720;7.452;2022-08-16T10:57:31;98556.59;;;28.43;77.36
30554;BME280;17335;50.720;7.452;2022-08-16T11:00:00;98564.28;;;28.57;79.28
30554;BME280;17335;50.720;7.452;2022-08-16T11:02:46;98551.38;;;29.02;76.87
30554;BME280;17335;50.720;7.452;2022-08-16T11:05:26;98547.09;;;29.25;73.68
30554;BME280;17335;50.720;7.452;2022-08-16T11:08:13;98553.78;;;29.53;73.63
30554;BME280;17335;50.720;7.452;2022-08-16T11:10:43;98554.78;;;29.68;68.94
30554;BME280;17335;50.720;7.452;2022-08-16T11:13:30;98566.47;;;29.60;63.46
30554;BME280;17335;50.720;7.452;2022-08-16T11:16:18;98547.84;;;29.70;65.37
30554;BME280;17335;50.720;7.452;2022-08-16T11:19:05;98550.44;;;29.91;63.11
30554;BME280;17335;50.720;7.452;2022-08-16T11:21:40;98548.69;;;30.29;62.04
30554;BME280;17335;50.720;7.452;2022-08-16T11:24:27;98540.75;;;30.47;57.94
30554;BME280;17335;50.720;7.452;2022-08-16T11:27:18;98550.28;;;30.79;56.99
30554;BME280;17335;50.720;7.452;2022-08-16T11:29:51;98561.19;;;30.94;52.54
30554;BME280;17335;50.720;7.452;2022-08-16T11:32:23;98548.81;;;30.67;51.24
30554;BME280;17335;50.720;7.452;2022-08-16T11:34:59;98555.94;;;30.93;54.18
30554;BME280;17335;50.720;7.452;2022-08-16T11:37:44;98554.69;;;31.04;48.37
30554;BME280;17335;50.720;7.452;2022-08-16T11:40:45;98547.56;;;31.17;49.34
30554;BME280;17335;50.720;7.452;2022-08-16T11:43:20;98552.81;;;31.37;49.67
30554;BME280;17335;50.720;7.452;2022-08-16T11:45:50;98548.63;;;31.40;51.16
30554;BME280;17335;50.720;7.452;2022-08-16T11:48:20;98549.50;;;31.54;49.12
30554;BME280;17335;50.720;7.452;2022-08-16T11:50:47;98541.88;;;31.65;48.49
30554;BME280;17335;50.720;7.452;2022-08-16T11:53:14;98547.50;;;31.22;45.29
30554;BME280;17335;50.720;7.452;2022-08-16T11:55:43;98550.50;;;30.63;46.51
30554;BME280;17335;50.720;7.452;2022-08-16T11:58:10;98554.16;;;30.10;50.91
30554;BME280;17335;50.720;7.452;2022-08-16T12:00:42;98552.44;;;29.85;53.98
30554;BME280;17335;50.720;7.452;2022-08-16T12:03:20;98548.22;;;29.59;56.58
30554;BME280;17335;50.720;7.452;2022-08-16T12:06:00;98557.41;;;29.09;59.93
30554;BME280;17335;50.720;7.452;2022-08-16T12:08:29;98555.53;;;28.99;60.01
30554;BME280;17335;50.720;7.452;2022-08-16T12:10:57;98549.44;;;29.03;59.71
30554;BME280;17335;50.720;7.452;2022-08-16T12:13:28;98544.50;;;29.39;58.46
30554;BME280;17335;50.720;7.452;2022-08-16T12:15:55;98549.97;;;29.49;54.67
30554;BME280;17335;50.720;7.452;2022-08-16T12:18:23;98548.94;;;30.04;56.92
30554;BME280;17335;50.720;7.452;2022-08-16T12:20:51;98544.97;;;30.39;54.09
30554;BME280;17335;50.720;7.452;2022-08-16T12:23:21;98552.16;;;30.64;52.60
30554;BME280;17335;50.720;7.452;2022-08-16T12:25:49;98544.78;;;30.30;52.31
30554;BME280;17335;50.720;7.452;2022-08-16T12:28:18;98550.78;;;29.84;53.76
30554;BME280;17335;50.720;7.452;2022-08-16T12:31:04;98545.25;;;29.50;54.66
30554;BME280;17335;50.720;7.452;2022-08-16T12:33:32;98542.34;;;29.65;53.25
30554;BME280;17335;50.720;7.452;2022-08-16T12:36:10;98530.00;;;30.16;51.36
30554;BME280;17335;50.720;7.452;2022-08-16T12:38:40;98543.38;;;30.33;50.00
30554;BME280;17335;50.720;7.452;2022-08-16T12:41:14;98535.44;;;30.51;48.39
30554;BME280;17335;50.720;7.452;2022-08-16T12:43:51;98529.72;;;30.85;49.14
30554;BME280;17335;50.720;7.452;2022-08-16T12:46:27;98532.53;;;31.23;48.14
30554;BME280;17335;50.720;7.452;2022-08-16T12:48:57;98531.56;;;31.14;47.88
30554;BME280;17335;50.720;7.452;2022-08-16T12:54:12;98533.31;;;31.42;46.40
30554;BME280;17335;50.720;7.452;2022-08-16T12:56:39;98533.22;;;31.67;47.73
30554;BME280;17335;50.720;7.452;2022-08-16T12:59:09;98530.59;;;31.75;44.44
30554;BME280;17335;50.720;7.452;2022-08-16T13:01:44;98533.44;;;31.70;43.06
30554;BME280;17335;50.720;7.452;2022-08-16T13:04:15;98525.44;;;31.69;43.55
30554;BME280;17335;50.720;7.452;2022-08-16T13:06:47;98531.41;;;31.24;44.09
30554;BME280;17335;50.720;7.452;2022-08-16T13:09:14;98530.25;;;31.44;44.77
30554;BME280;17335;50.720;7.452;2022-08-16T13:12:07;98525.13;;;31.70;44.17
30554;BME280;17335;50.720;7.452;2022-08-16T13:14:42;98524.84;;;31.86;42.80
30554;BME280;17335;50.720;7.452;2022-08-16T13:17:13;98525.47;;;31.96;42.13
30554;BME280;17335;50.720;7.452;2022-08-16T13:19:46;98523.22;;;31.99;41.23
30554;BME280;17335;50.720;7.452;2022-08-16T13:22:33;98526.41;;;31.92;41.50
30554;BME280;17335;50.720;7.452;2022-08-16T13:25:00;98526.19;;;32.02;41.20
30554;BME280;17335;50.720;7.452;2022-08-16T13:27:27;98525.94;;;32.31;41.06
30554;BME280;17335;50.720;7.452;2022-08-16T13:30:14;98518.22;;;32.42;39.55